Time;durP1;ratioP1;P1;durP2;ratioP2;P2;SDS_P1;SDS_P2;PMS_P1;PMS_P2;Temp;Humidity;BMP_temperature;BMP_pressure;BME280_temperature;BME280_humidity;BME280_pressure;Samples;Min_cycle;Max_cycle;Signal;HPM_P1;HPM_P2
2024/01/30 00:01:45;;;;;;;3.72;3.45;;;;;;;2.58;100.00;99892.81;4167397;28;20240;-52
2024/01/30 00:03:46;;;;;;;4.20;3.90;;;;;;;2.64;100.00;99892.16;4170521;28;20835;-55
2024/01/30 00:05:48;;;;;;;3.78;3.47;;;;;;;2.48;100.00;99897.53;4169623;28;20902;-52
2024/01/30 00:07:50;;;;;;;3.55;3.35;;;;;;;2.43;100.00;99893.63;4176898;28;20215;-53
2024/01/30 00:09:52;;;;;;;2.80;2.63;;;;;;;2.40;100.00;99894.81;4168595;28;20207;-56
2024/01/30 00:11:54;;;;;;;3.05;2.75;;;;;;;2.38;100.00;99894.13;4152214;28;20504;-54
2024/01/30 00:13:56;;;;;;;2.80;2.60;;;;;;;2.43;100.00;99894.50;4177125;28;20227;-53
2024/01/30 00:15:58;;;;;;;3.42;3.17;;;;;;;2.35;100.00;99897.16;4167735;28;20658;-53
2024/01/30 00:17:59;;;;;;;3.15;2.92;;;;;;;2.35;100.00;99902.53;4169952;28;20208;-53
2024/01/30 00:20:05;;;;;;;2.28;2.17;;;;;;;2.41;100.00;99896.50;4178193;28;20219;-54
2024/01/30 00:22:07;;;;;;;2.30;2.10;;;;;;;2.33;100.00;99899.19;4185008;28;20767;-51
2024/01/30 00:24:09;;;;;;;2.92;2.70;;;;;;;2.32;100.00;99897.50;4170750;28;20272;-51
2024/01/30 00:26:11;;;;;;;2.42;2.33;;;;;;;2.35;100.00;99896.31;4161730;28;20271;-53
2024/01/30 00:28:13;;;;;;;3.10;2.90;;;;;;;2.34;100.00;99900.84;4187979;28;20261;-53
2024/01/30 00:30:15;;;;;;;2.72;2.53;;;;;;;2.37;100.00;99897.84;4169373;28;20251;-53
2024/01/30 00:32:19;;;;;;;2.75;2.05;;;;;;;2.27;100.00;99897.13;4175187;28;20200;-52
2024/01/30 00:34:21;;;;;;;3.00;2.78;;;;;;;2.29;100.00;99895.13;4177468;28;20602;-52
2024/01/30 00:36:22;;;;;;;2.47;2.38;;;;;;;2.20;100.00;99896.09;4169434;28;20303;-52
2024/01/30 00:38:24;;;;;;;2.45;2.15;;;;;;;2.18;100.00;99900.81;4178251;28;20212;-53
2024/01/30 00:40:26;;;;;;;2.38;2.17;;;;;;;2.13;100.00;99897.75;4185292;28;20669;-53
2024/01/30 00:42:28;;;;;;;3.03;2.72;;;;;;;2.14;100.00;99894.03;4189870;28;20227;-53
2024/01/30 00:44:29;;;;;;;2.45;1.77;;;;;;;2.08;100.00;99893.88;4171977;28;20299;-52
2024/01/30 00:46:31;;;;;;;2.60;2.50;;;;;;;2.05;100.00;99900.44;4168582;28;21163;-52
2024/01/30 00:48:33;;;;;;;3.92;2.67;;;;;;;1.97;100.00;99899.53;4173254;28;20569;-52
2024/01/30 00:50:35;;;;;;;2.28;2.08;;;;;;;1.96;100.00;99896.00;4175541;28;20674;-53
2024/01/30 00:52:38;;;;;;;3.13;2.92;;;;;;;1.97;100.00;99900.41;4171668;28;20220;-53
2024/01/30 00:54:40;;;;;;;2.78;2.63;;;;;;;1.96;100.00;99898.72;4174297;28;20208;-52
2024/01/30 00:56:42;;;;;;;3.42;3.22;;;;;;;1.96;100.00;99901.41;4169512;28;20626;-53
2024/01/30 00:58:44;;;;;;;4.75;2.78;;;;;;;1.97;100.00;99897.69;4171162;28;20204;-51
2024/01/30 01:00:45;;;;;;;3.80;3.55;;;;;;;1.90;100.00;99893.97;4183837;28;20419;-51
2024/01/30 01:02:47;;;;;;;4.10;3.80;;;;;;;1.93;100.00;99893.63;4172419;28;20234;-51
2024/01/30 01:04:49;;;;;;;3.95;3.55;;;;;;;1.93;100.00;99900.88;4170477;28;20889;-52
2024/01/30 01:06:51;;;;;;;3.15;2.90;;;;;;;1.94;100.00;99894.47;4174675;28;20295;-54
2024/01/30 01:08:53;;;;;;;3.22;2.72;;;;;;;1.96;100.00;99896.00;4174860;28;20204;-53
2024/01/30 01:10:55;;;;;;;3.67;3.42;;;;;;;1.96;100.00;99896.00;4170307;28;20255;-52
2024/01/30 01:12:57;;;;;;;4.75;4.45;;;;;;;1.99;100.00;99895.69;4170498;28;20220;-51
2024/01/30 01:14:59;;;;;;;3.72;3.42;;;;;;;1.96;100.00;99896.00;4168094;28;20209;-53
2024/01/30 01:17:01;;;;;;;2.65;2.45;;;;;;;1.94;100.00;99892.59;4187046;28;20199;-52
2024/01/30 01:19:03;;;;;;;2.33;2.22;;;;;;;1.87;100.00;99891.56;4183646;28;20258;-51
2024/01/30 01:21:05;;;;;;;2.67;2.42;;;;;;;1.82;100.00;99893.91;4164591;28;20304;-52
2024/01/30 01:23:07;;;;;;;13.30;3.17;;;;;;;1.95;100.00;99894.28;4176086;28;20224;-51
2024/01/30 01:25:10;;;;;;;3.33;2.88;;;;;;;1.82;100.00;99893.91;4175875;28;20564;-53
2024/01/30 01:27:12;;;;;;;3.47;3.17;;;;;;;1.81;100.00;99894.91;4184344;28;20208;-53
2024/01/30 01:29:15;;;;;;;2.85;2.65;;;;;;;1.89;100.00;99891.41;4167803;28;20219;-52
2024/01/30 01:31:17;;;;;;;2.83;2.63;;;;;;;1.91;100.00;99892.94;4175971;28;20688;-52
2024/01/30 01:33:20;;;;;;;2.28;2.10;;;;;;;1.88;100.00;99890.56;4175628;28;20228;-51
2024/01/30 01:35:24;;;;;;;1.85;1.75;;;;;;;1.76;100.00;99896.41;4184308;28;20287;-51
2024/01/30 01:37:26;;;;;;;5.22;3.15;;;;;;;1.75;100.00;99898.25;4151669;28;20754;-51
2024/01/30 01:39:28;;;;;;;2.88;2.60;;;;;;;1.73;100.00;99892.19;4174743;28;20204;-51
2024/01/30 01:41:33;;;;;;;3.20;3.00;;;;;;;1.69;100.00;99898.88;4183734;28;20263;-52
2024/01/30 01:43:34;;;;;;;3.30;2.90;;;;;;;1.69;100.00;99898.88;4171109;28;20302;-53
2024/01/30 01:45:36;;;;;;;2.35;2.25;;;;;;;1.68;100.00;99891.81;4168030;28;20306;-51
2024/01/30 01:47:38;;;;;;;2.15;2.05;;;;;;;1.72;100.00;99897.72;4176636;28;20319;-54
2024/01/30 01:49:40;;;;;;;1.90;1.80;;;;;;;1.69;100.00;99893.50;4167203;28;20236;-53
2024/01/30 01:51:44;;;;;;;2.45;2.35;;;;;;;1.66;100.00;99893.81;4159411;28;20208;-53
2024/01/30 01:53:46;;;;;;;1.65;1.55;;;;;;;1.62;100.00;99891.63;4167075;28;20705;-53
2024/01/30 01:55:48;;;;;;;3.17;2.88;;;;;;;1.61;100.00;99890.75;4148846;28;20201;-52
2024/01/30 01:57:50;;;;;;;2.33;2.13;;;;;;;1.61;100.00;99892.63;4167507;28;20227;-54
2024/01/30 01:59:52;;;;;;;2.60;2.40;;;;;;;1.77;100.00;99890.84;4158295;28;20475;-53
2024/01/30 02:01:55;;;;;;;2.70;2.55;;;;;;;1.58;100.00;99890.22;4158974;28;20232;-52
2024/01/30 02:03:58;;;;;;;3.75;3.25;;;;;;;1.57;100.00;99888.53;4181937;28;20223;-52
2024/01/30 02:06:02;;;;;;;2.58;2.38;;;;;;;1.63;100.00;99885.22;4176736;28;20246;-53
2024/01/30 02:08:04;;;;;;;2.75;2.53;;;;;;;1.54;100.00;99889.69;4186663;28;20211;-51
2024/01/30 02:10:07;;;;;;;3.67;2.67;;;;;;;1.54;100.00;99888.88;4156508;28;20201;-52
2024/01/30 02:12:09;;;;;;;2.10;1.95;;;;;;;1.51;100.00;99887.34;4175130;28;20238;-52
2024/01/30 02:14:11;;;;;;;3.03;2.72;;;;;;;1.54;100.00;99887.00;4172277;28;20251;-52
2024/01/30 02:16:13;;;;;;;2.15;2.05;;;;;;;1.53;100.00;99888.00;4173704;28;20216;-52
2024/01/30 02:18:14;;;;;;;2.47;2.28;;;;;;;1.51;100.00;99890.03;4173631;28;20212;-52
2024/01/30 02:20:16;;;;;;;2.45;2.25;;;;;;;1.52;100.00;99886.31;4178869;28;20212;-52
2024/01/30 02:22:19;;;;;;;2.88;2.65;;;;;;;1.55;100.00;99886.00;4159063;28;20251;-52
2024/01/30 02:24:21;;;;;;;2.15;2.05;;;;;;;1.54;100.00;99884.31;4166922;28;20243;-51
2024/01/30 02:26:22;;;;;;;2.40;2.20;;;;;;;1.50;100.00;99882.97;4169709;28;20216;-53
2024/01/30 02:28:24;;;;;;;2.95;2.75;;;;;;;1.53;100.00;99882.63;4169263;28;20205;-51
2024/01/30 02:30:26;;;;;;;4.30;2.20;;;;;;;1.49;100.00;99886.63;4170398;28;20205;-51
2024/01/30 02:32:28;;;;;;;1.92;1.83;;;;;;;1.46;100.00;99881.56;4155359;28;20208;-52
2024/01/30 02:34:30;;;;;;;4.60;1.83;;;;;;;1.42;100.00;99885.56;4172724;28;20616;-51
2024/01/30 02:36:31;;;;;;;2.10;1.92;;;;;;;1.41;100.00;99886.59;4178030;28;20682;-54
2024/01/30 02:38:33;;;;;;;6.40;2.30;;;;;;;1.42;100.00;99884.75;4171502;28;20211;-51
2024/01/30 02:40:35;;;;;;;3.28;2.75;;;;;;;1.39;100.00;99880.50;4174661;28;20660;-52
2024/01/30 02:42:36;;;;;;;2.05;1.95;;;;;;;1.34;100.00;99880.13;4174519;28;20664;-51
2024/01/30 02:44:38;;;;;;;2.30;2.15;;;;;;;1.37;100.00;99884.38;4185583;28;20269;-51
2024/01/30 02:46:40;;;;;;;2.47;2.30;;;;;;;1.31;100.00;99887.69;4156706;28;20223;-51
2024/01/30 02:48:42;;;;;;;3.00;2.75;;;;;;;1.33;100.00;99875.75;4184315;28;20787;-55
2024/01/30 02:50:44;;;;;;;2.33;2.22;;;;;;;1.26;100.00;99879.22;4177025;28;20209;-52
2024/01/30 02:52:45;;;;;;;1.95;1.85;;;;;;;1.23;100.00;99885.81;4177147;28;20220;-51
2024/01/30 02:54:47;;;;;;;2.20;2.00;;;;;;;1.44;100.00;99878.19;4175995;28;20204;-51
2024/01/30 02:56:49;;;;;;;2.88;2.70;;;;;;;1.25;100.00;99878.41;4169943;28;20213;-52
2024/01/30 02:58:52;;;;;;;2.20;2.10;;;;;;;1.28;100.00;99878.06;4171830;28;20620;-53
2024/01/30 03:00:53;;;;;;;2.25;2.13;;;;;;;1.29;100.00;99881.63;4172310;28;20212;-51
2024/01/30 03:02:55;;;;;;;2.15;1.95;;;;;;;1.20;100.00;99880.72;4173098;28;20262;-52
2024/01/30 03:04:57;;;;;;;3.47;2.72;;;;;;;1.37;100.00;99871.75;4173340;28;20676;-55
2024/01/30 03:06:59;;;;;;;2.53;2.38;;;;;;;1.27;100.00;99870.16;4174773;28;20231;-54
2024/01/30 03:09:00;;;;;;;2.80;2.60;;;;;;;1.31;100.00;99885.84;4176609;28;20200;-53
2024/01/30 03:11:02;;;;;;;2.30;2.10;;;;;;;1.36;100.00;99886.25;4175917;28;20216;-53
2024/01/30 03:13:04;;;;;;;2.28;2.17;;;;;;;1.16;100.00;99884.75;4176511;28;20216;-52
2024/01/30 03:15:06;;;;;;;2.17;2.08;;;;;;;1.15;100.00;99883.03;4183309;28;20226;-53
2024/01/30 03:17:08;;;;;;;3.60;3.40;;;;;;;1.14;100.00;99881.34;4175963;28;20201;-53
2024/01/30 03:19:09;;;;;;;2.58;2.38;;;;;;;1.15;100.00;99887.59;4171390;28;20212;-51
2024/01/30 03:21:11;;;;;;;2.30;2.20;;;;;;;1.12;100.00;99883.34;4173845;28;20210;-52
2024/01/30 03:23:13;;;;;;;2.20;2.10;;;;;;;1.14;100.00;99881.34;4176746;28;20677;-52
2024/01/30 03:25:15;;;;;;;2.92;2.72;;;;;;;1.10;100.00;99882.69;4170729;28;20295;-51
2024/01/30 03:27:16;;;;;;;6.90;2.28;;;;;;;1.12;100.00;99877.97;4177332;28;20200;-52
2024/01/30 03:29:18;;;;;;;2.28;1.98;;;;;;;1.12;100.00;99877.97;4170290;28;20207;-53
2024/01/30 03:31:20;;;;;;;2.45;2.28;;;;;;;1.21;100.00;99881.56;4185502;28;20211;-51
2024/01/30 03:33:22;;;;;;;3.78;3.50;;;;;;;1.35;100.00;99881.81;4169240;28;20255;-55
2024/01/30 03:35:24;;;;;;;2.50;2.40;;;;;;;1.19;100.00;99884.41;4166052;28;20220;-52
2024/01/30 03:37:26;;;;;;;3.15;3.00;;;;;;;1.07;100.00;99874.88;4176228;28;20212;-52
2024/01/30 03:39:27;;;;;;;3.92;3.60;;;;;;;1.08;100.00;99887.34;4170465;28;20313;-53
2024/01/30 03:41:29;;;;;;;2.25;2.15;;;;;;;1.07;100.00;99874.88;4169787;28;20274;-53
2024/01/30 03:43:31;;;;;;;2.72;2.53;;;;;;;1.07;100.00;99882.97;4172124;28;20231;-53
2024/01/30 03:45:33;;;;;;;2.47;2.38;;;;;;;1.09;100.00;99883.66;4177513;28;20303;-52
2024/01/30 03:47:34;;;;;;;1.85;1.65;;;;;;;1.06;100.00;99878.59;4184933;28;20261;-52
2024/01/30 03:49:36;;;;;;;2.08;1.90;;;;;;;1.02;100.00;99877.19;4171397;28;20791;-52
2024/01/30 03:51:38;;;;;;;2.35;2.15;;;;;;;0.97;100.00;99876.00;4172769;28;20216;-52
2024/01/30 03:53:41;;;;;;;16.13;3.55;;;;;;;1.11;100.00;99876.28;4171511;28;20607;-52
2024/01/30 03:55:43;;;;;;;1.90;1.80;;;;;;;0.98;100.00;99870.44;4177227;28;20212;-52
2024/01/30 03:57:45;;;;;;;2.10;2.00;;;;;;;1.09;100.00;99877.44;4169253;28;20219;-52
2024/01/30 03:59:47;;;;;;;1.85;1.75;;;;;;;0.96;100.00;99874.31;4168846;28;20566;-51
2024/01/30 04:01:48;;;;;;;2.70;2.28;;;;;;;0.98;100.00;99872.28;4172986;28;20219;-52
2024/01/30 04:03:50;;;;;;;2.60;2.40;;;;;;;0.94;100.00;99869.06;4166863;28;20327;-52
2024/01/30 04:05:53;;;;;;;1.92;1.65;;;;;;;0.91;100.00;99869.38;4181137;28;20243;-55
2024/01/30 04:07:54;;;;;;;3.67;3.38;;;;;;;0.94;100.00;99874.44;4177143;28;20636;-52
2024/01/30 04:09:56;;;;;;;2.05;1.95;;;;;;;0.91;100.00;99865.84;4170495;28;20207;-56
2024/01/30 04:11:58;;;;;;;2.38;2.17;;;;;;;0.98;100.00;99874.97;4168738;28;20964;-55
2024/01/30 04:14:00;;;;;;;5.97;2.30;;;;;;;0.90;100.00;99878.47;4175986;28;20223;-52
2024/01/30 04:16:02;;;;;;;2.22;2.13;;;;;;;0.88;100.00;99867.00;4168522;28;20265;-52
2024/01/30 04:18:04;;;;;;;2.75;2.58;;;;;;;0.90;100.00;99870.41;4167660;28;20233;-53
2024/01/30 04:20:06;;;;;;;2.75;2.55;;;;;;;0.87;100.00;99881.47;4172062;28;20209;-52
2024/01/30 04:22:08;;;;;;;3.97;3.67;;;;;;;0.87;100.00;99872.56;4170351;28;20582;-52
2024/01/30 04:24:10;;;;;;;2.45;2.35;;;;;;;0.87;100.00;99878.78;4164649;28;20231;-53
2024/01/30 04:26:12;;;;;;;3.17;2.58;;;;;;;0.88;100.00;99872.38;4166249;28;20215;-53
2024/01/30 04:28:13;;;;;;;2.47;2.35;;;;;;;0.92;100.00;99876.47;4165515;28;20691;-53
2024/01/30 04:30:15;;;;;;;3.17;2.97;;;;;;;0.85;100.00;99874.53;4175716;28;20590;-52
2024/01/30 04:32:17;;;;;;;2.85;2.65;;;;;;;0.88;100.00;99869.69;4170158;28;20208;-51
2024/01/30 04:34:19;;;;;;;2.58;2.45;;;;;;;0.80;100.00;99877.69;4177065;28;20684;-52
2024/01/30 04:36:20;;;;;;;1.90;1.80;;;;;;;0.81;100.00;99879.38;4168789;28;20212;-53
2024/01/30 04:38:22;;;;;;;2.45;1.80;;;;;;;0.78;100.00;99878.84;4171591;28;20637;-52
2024/01/30 04:40:24;;;;;;;2.30;2.20;;;;;;;0.79;100.00;99885.94;4176300;28;20212;-54
2024/01/30 04:42:26;;;;;;;2.88;2.67;;;;;;;0.77;100.00;99887.94;4176008;28;20211;-53
2024/01/30 04:44:28;;;;;;;2.30;2.15;;;;;;;0.79;100.00;99886.78;4169366;28;20271;-52
2024/01/30 04:46:30;;;;;;;2.40;2.30;;;;;;;0.86;100.00;99879.78;4169823;28;20208;-55
2024/01/30 04:48:31;;;;;;;2.85;2.60;;;;;;;0.85;100.00;99883.47;4171223;28;20204;-54
2024/01/30 04:50:33;;;;;;;2.47;2.35;;;;;;;0.80;100.00;99882.25;4172307;28;20558;-53
2024/01/30 04:52:35;;;;;;;2.15;1.95;;;;;;;0.80;100.00;99885.78;4175723;28;20672;-52
2024/01/30 04:54:37;;;;;;;1.98;1.88;;;;;;;0.86;100.00;99881.59;4170199;28;20293;-54
2024/01/30 04:56:39;;;;;;;2.60;2.50;;;;;;;0.77;100.00;99883.41;4171292;28;20211;-53
2024/01/30 04:58:41;;;;;;;2.30;2.10;;;;;;;0.71;100.00;99878.66;4165208;28;20217;-54
2024/01/30 05:00:42;;;;;;;2.50;2.30;;;;;;;0.67;100.00;99887.19;4175018;28;20215;-54
2024/01/30 05:02:45;;;;;;;4.95;3.80;;;;;;;0.66;100.00;99891.72;4167771;28;20236;-54
2024/01/30 05:04:46;;;;;;;2.97;2.78;;;;;;;0.69;100.00;99891.41;4168647;28;20247;-52
2024/01/30 05:06:48;;;;;;;3.13;2.85;;;;;;;0.75;100.00;99890.78;4185456;28;20238;-53
2024/01/30 05:08:50;;;;;;;3.50;3.30;;;;;;;0.64;100.00;99893.72;4188513;28;20223;-53
2024/01/30 05:10:52;;;;;;;3.10;2.90;;;;;;;0.62;100.00;99895.72;4170080;28;20211;-54
2024/01/30 05:12:53;;;;;;;2.33;2.22;;;;;;;0.61;100.00;99894.03;4170306;28;20228;-54
2024/01/30 05:14:55;;;;;;;3.33;3.03;;;;;;;0.63;100.00;99894.72;4166309;28;20763;-54
2024/01/30 05:16:57;;;;;;;3.33;3.13;;;;;;;0.63;100.00;99894.72;4169016;28;20243;-52
2024/01/30 05:18:59;;;;;;;2.15;2.03;;;;;;;0.59;100.00;99896.03;4176985;28;20251;-54
2024/01/30 05:21:05;;;;;;;2.47;2.28;;;;;;;0.59;100.00;99898.72;4170901;28;20204;-54
2024/01/30 05:23:07;;;;;;;2.15;2.05;;;;;;;0.57;100.00;99892.66;4169973;28;20357;-53
2024/01/30 05:25:08;;;;;;;1.92;1.85;;;;;;;0.61;100.00;99894.03;4169025;28;20216;-53
2024/01/30 05:27:11;;;;;;;3.00;2.80;;;;;;;0.66;100.00;99894.41;4178026;28;20203;-54
2024/01/30 05:29:13;;;;;;;2.25;2.05;;;;;;;0.74;100.00;99891.78;4162098;28;20376;-52
2024/01/30 05:31:14;;;;;;;3.63;3.30;;;;;;;0.64;100.00;99888.34;4174739;28;20663;-54
2024/01/30 05:33:16;;;;;;;2.50;2.40;;;;;;;0.59;100.00;99887.94;4173169;28;20230;-53
2024/01/30 05:35:18;;;;;;;2.80;2.60;;;;;;;0.54;100.00;99892.13;4174873;28;20211;-54
2024/01/30 05:37:20;;;;;;;3.40;3.08;;;;;;;0.49;100.00;99897.94;4171515;28;20204;-52
2024/01/30 05:39:21;;;;;;;2.40;2.30;;;;;;;0.57;100.00;99892.66;4181681;28;20203;-52
2024/01/30 05:41:23;;;;;;;3.38;3.08;;;;;;;0.73;100.00;99892.78;4174551;28;20274;-52
2024/01/30 05:43:25;;;;;;;2.90;2.67;;;;;;;0.71;100.00;99900.19;4170623;28;20286;-52
2024/01/30 05:45:27;;;;;;;5.25;3.25;;;;;;;0.60;100.00;99902.28;4174101;28;20252;-52
2024/01/30 05:47:28;;;;;;;4.63;2.67;;;;;;;0.56;100.00;99899.00;4173456;28;20239;-52
2024/01/30 05:49:30;;;;;;;2.95;2.72;;;;;;;0.54;100.00;99901.00;4187120;28;20491;-51
2024/01/30 05:51:32;;;;;;;1.85;1.75;;;;;;;0.59;100.00;99901.41;4168723;28;20213;-52
2024/01/30 05:53:34;;;;;;;3.00;2.80;;;;;;;0.59;100.00;99904.09;4170798;28;20229;-52
2024/01/30 05:55:36;;;;;;;2.97;2.78;;;;;;;0.66;100.00;99902.50;4169723;28;20209;-51
2024/01/30 05:57:38;;;;;;;3.38;3.08;;;;;;;0.53;100.00;99904.72;4177887;28;20220;-52
2024/01/30 05:59:40;;;;;;;6.03;3.42;;;;;;;0.50;100.00;99907.72;4176199;28;20235;-52
2024/01/30 06:01:47;;;;;;;2.97;2.78;;;;;;;0.51;100.00;99906.72;4172842;28;20648;-52
2024/01/30 06:03:49;;;;;;;2.95;2.72;;;;;;;0.50;100.00;99907.72;4176199;28;20274;-52
2024/01/30 06:05:51;;;;;;;3.50;3.20;;;;;;;0.50;100.00;99907.72;4188042;28;20262;-53
2024/01/30 06:07:53;;;;;;;3.60;3.38;;;;;;;0.54;100.00;99895.63;4173720;28;20762;-53
2024/01/30 06:09:55;;;;;;;4.70;1.98;;;;;;;0.49;100.00;99895.25;4171201;28;20625;-52
2024/01/30 06:11:57;;;;;;;2.20;2.10;;;;;;;0.45;100.00;99899.25;4172796;28;20208;-52
2024/01/30 06:13:58;;;;;;;3.90;3.63;;;;;;;0.45;100.00;99898.41;4171741;28;20232;-52
2024/01/30 06:16:00;;;;;;;2.22;2.03;;;;;;;0.47;100.00;99899.94;4170816;28;20292;-54
2024/01/30 06:18:02;;;;;;;2.50;2.35;;;;;;;0.62;100.00;99882.25;4173161;28;20215;-56
2024/01/30 06:20:05;;;;;;;2.83;2.63;;;;;;;0.46;100.00;99884.78;4160966;28;20837;-53
2024/01/30 06:22:07;;;;;;;2.47;2.22;;;;;;;0.41;100.00;99891.63;4173440;28;20914;-54
2024/01/30 06:24:08;;;;;;;2.88;2.67;;;;;;;0.39;100.00;99897.16;4167794;28;20240;-53
2024/01/30 06:26:10;;;;;;;3.53;2.83;;;;;;;0.49;100.00;99884.47;4167788;28;20230;-53
2024/01/30 06:28:12;;;;;;;2.30;2.10;;;;;;;0.44;100.00;99881.41;4168698;28;20209;-54
2024/01/30 06:30:14;;;;;;;2.92;2.63;;;;;;;0.44;100.00;99891.31;4168070;28;20663;-54
2024/01/30 06:32:16;;;;;;;2.67;2.47;;;;;;;0.32;100.00;99885.31;4185510;28;20253;-51
2024/01/30 06:34:17;;;;;;;2.50;2.35;;;;;;;0.37;100.00;99891.09;4171308;28;20205;-53
2024/01/30 06:36:19;;;;;;;3.80;3.35;;;;;;;0.36;100.00;99900.16;4174412;28;20217;-52
2024/01/30 06:38:21;;;;;;;3.17;3.08;;;;;;;0.37;100.00;99896.47;4172764;28;20611;-52
2024/01/30 06:40:23;;;;;;;3.08;2.80;;;;;;;0.36;100.00;99900.16;4161110;28;20792;-52
2024/01/30 06:42:25;;;;;;;2.75;2.60;;;;;;;0.38;100.00;99892.78;4177547;28;20204;-52
2024/01/30 06:44:26;;;;;;;2.83;2.63;;;;;;;0.40;100.00;99901.56;4154699;28;20659;-51
2024/01/30 06:46:31;;;;;;;5.22;3.30;;;;;;;0.42;100.00;99904.94;4183763;28;20208;-51
2024/01/30 06:48:32;;;;;;;4.82;3.88;;;;;;;0.43;100.00;99893.19;4171062;28;20217;-52
2024/01/30 06:50:34;;;;;;;5.57;5.00;;;;;;;0.40;100.00;99912.31;4171405;28;20258;-54
2024/01/30 06:52:36;;;;;;;5.63;4.03;;;;;;;0.45;100.00;99904.63;4175602;28;20319;-54
2024/01/30 06:54:38;;;;;;;3.40;3.13;;;;;;;0.42;100.00;99913.00;4186882;28;20207;-53
2024/01/30 06:56:39;;;;;;;5.07;4.55;;;;;;;0.37;100.00;99912.63;4167974;28;20224;-51
2024/01/30 06:58:41;;;;;;;4.88;4.15;;;;;;;0.37;100.00;99911.78;4176829;28;20211;-52
2024/01/30 07:00:43;;;;;;;3.40;2.97;;;;;;;0.41;100.00;99914.00;4185423;28;20215;-52
2024/01/30 07:02:45;;;;;;;10.95;3.58;;;;;;;0.38;100.00;99919.72;4173196;28;20262;-52
2024/01/30 07:04:47;;;;;;;2.85;2.65;;;;;;;0.43;100.00;99917.41;4175780;28;20220;-53
2024/01/30 07:06:49;;;;;;;3.67;3.35;;;;;;;0.36;100.00;99916.28;4173155;28;20204;-53
2024/01/30 07:08:50;;;;;;;2.57;2.40;;;;;;;0.34;100.00;99918.31;4176065;28;20215;-54
2024/01/30 07:10:55;;;;;;;3.17;2.97;;;;;;;0.33;100.00;99922.00;4174444;28;20298;-51
2024/01/30 07:13:01;;;;;;;4.20;3.90;;;;;;;0.34;100.00;99928.25;4188640;28;20712;-52
2024/01/30 07:15:04;;;;;;;2.88;2.67;;;;;;;0.34;100.00;99923.69;4176753;28;20251;-54
2024/01/30 07:17:06;;;;;;;4.18;3.88;;;;;;;0.39;100.00;99926.78;4169912;28;20218;-52
2024/01/30 07:19:09;;;;;;;3.40;3.13;;;;;;;0.48;100.00;99920.47;4168640;28;20207;-52
2024/01/30 07:21:14;;;;;;;2.58;2.33;;;;;;;0.44;100.00;99921.78;4172771;28;20215;-54
2024/01/30 07:23:17;;;;;;;4.03;3.75;;;;;;;0.45;100.00;99931.56;4187039;28;20757;-54
2024/01/30 07:25:19;;;;;;;3.83;3.63;;;;;;;0.60;100.00;99926.50;4162008;28;20484;-53
2024/01/30 07:27:21;;;;;;;3.70;2.83;;;;;;;0.53;100.00;99922.69;4172271;28;20208;-54
2024/01/30 07:29:23;;;;;;;4.57;4.28;;;;;;;0.51;100.00;99932.78;4176322;28;20204;-53
2024/01/30 07:31:24;;;;;;;3.17;3.03;;;;;;;0.53;100.00;99928.94;4171102;28;20262;-53
2024/01/30 07:33:28;;;;;;;3.28;2.97;;;;;;;0.60;100.00;99924.66;4175904;28;20255;-53
2024/01/30 07:35:33;;;;;;;4.95;4.65;;;;;;;0.60;100.00;99929.19;4172947;28;20338;-53
2024/01/30 07:37:35;;;;;;;4.57;4.28;;;;;;;0.61;100.00;99936.28;4173405;28;20208;-53
2024/01/30 07:39:37;;;;;;;2.92;2.72;;;;;;;0.64;100.00;99933.25;4185537;28;20214;-52
2024/01/30 07:41:38;;;;;;;4.82;4.28;;;;;;;0.68;100.00;99927.41;4166884;28;20632;-52
2024/01/30 07:43:40;;;;;;;3.88;3.58;;;;;;;0.67;100.00;99939.19;4167793;28;20706;-54
2024/01/30 07:45:42;;;;;;;2.50;2.40;;;;;;;0.70;100.00;99933.50;4176106;28;20208;-54
2024/01/30 07:47:45;;;;;;;2.67;2.47;;;;;;;0.71;100.00;99927.13;4186029;28;20268;-55
2024/01/30 07:49:46;;;;;;;3.50;3.30;;;;;;;0.72;100.00;99928.81;4167901;28;20296;-54
2024/01/30 07:51:48;;;;;;;3.30;3.10;;;;;;;0.72;100.00;99923.44;4185713;28;20207;-56
2024/01/30 07:53:50;;;;;;;3.17;2.97;;;;;;;0.74;100.00;99921.41;4169693;28;20236;-54
2024/01/30 07:55:52;;;;;;;3.53;3.33;;;;;;;0.75;100.00;99933.88;4175919;28;20211;-55
2024/01/30 07:57:54;;;;;;;2.55;2.30;;;;;;;0.82;100.00;99926.88;4174130;28;20259;-55
2024/01/30 07:59:57;;;;;;;3.63;2.78;;;;;;;0.82;100.00;99929.56;4170148;28;20259;-53
2024/01/30 08:01:59;;;;;;;4.50;4.18;;;;;;;0.88;100.00;99939.72;4185275;28;20207;-57
2024/01/30 08:04:01;;;;;;;2.83;2.63;;;;;;;0.93;100.00;99939.25;4166274;28;20241;-54
2024/01/30 08:06:03;;;;;;;8.23;3.80;;;;;;;0.97;100.00;99943.34;4172034;28;20637;-53
2024/01/30 08:08:05;;;;;;;2.38;2.17;;;;;;;0.95;100.00;99946.19;4170270;28;20223;-52
2024/01/30 08:10:07;;;;;;;2.88;2.67;;;;;;;0.98;100.00;99940.50;4171253;28;20208;-53
2024/01/30 08:12:09;;;;;;;2.53;2.33;;;;;;;0.99;100.00;99947.59;4168559;28;20716;-52
2024/01/30 08:14:11;;;;;;;4.90;2.75;;;;;;;1.03;100.00;99953.50;4171925;28;20224;-54
2024/01/30 08:16:12;;;;;;;11.32;4.22;;;;;;;1.05;100.00;99949.66;4158023;28;20219;-52
2024/01/30 08:18:16;;;;;;;5.38;3.00;;;;;;;1.11;100.00;99945.50;4169887;28;20208;-53
2024/01/30 08:20:17;;;;;;;4.65;4.18;;;;;;;1.15;100.00;99950.41;4169940;28;20211;-54
2024/01/30 08:22:19;;;;;;;3.53;3.28;;;;;;;1.17;100.00;99944.88;4171481;28;20603;-53
2024/01/30 08:24:21;;;;;;;3.83;3.63;;;;;;;1.21;100.00;99952.50;4172353;28;20246;-56
2024/01/30 08:26:23;;;;;;;2.70;2.55;;;;;;;1.25;100.00;99945.78;4185276;28;20203;-53
2024/01/30 08:28:26;;;;;;;4.30;4.00;;;;;;;1.31;100.00;99952.41;4171859;28;20210;-53
2024/01/30 08:30:28;;;;;;;3.83;3.55;;;;;;;1.33;100.00;99951.25;4183248;28;20200;-53
2024/01/30 08:32:30;;;;;;;3.28;3.08;;;;;;;1.36;100.00;99950.94;4187299;28;20209;-54
2024/01/30 08:34:32;;;;;;;4.60;3.92;;;;;;;1.44;100.00;99950.16;4182966;28;20215;-54
2024/01/30 08:36:34;;;;;;;3.17;2.95;;;;;;;1.43;100.00;99945.75;4157635;28;20588;-52
2024/01/30 08:38:36;;;;;;;3.53;3.22;;;;;;;1.43;100.00;99943.94;4177146;28;20243;-53
2024/01/30 08:40:38;;;;;;;3.78;3.47;;;;;;;1.47;100.00;99942.59;4169448;28;20213;-54
2024/01/30 08:42:40;;;;;;;4.18;3.90;;;;;;;1.52;100.00;99948.34;4185953;28;20227;-56
2024/01/30 08:44:45;;;;;;;3.47;2.42;;;;;;;1.55;100.00;99950.72;4175582;28;20232;-55
2024/01/30 08:46:47;;;;;;;3.10;2.80;;;;;;;1.60;100.00;99953.81;4172886;28;20207;-57
2024/01/30 08:48:48;;;;;;;4.45;4.22;;;;;;;1.67;100.00;99954.84;4169337;28;20212;-54
2024/01/30 08:50:51;;;;;;;2.95;2.75;;;;;;;1.75;100.00;99957.59;4172697;28;20574;-53
2024/01/30 08:52:52;;;;;;;3.95;3.70;;;;;;;1.76;100.00;99953.94;4176645;28;20753;-54
2024/01/30 08:54:54;;;;;;;3.75;3.50;;;;;;;1.79;100.00;99952.72;4177425;28;20211;-53
2024/01/30 08:56:58;;;;;;;3.95;3.75;;;;;;;1.86;100.00;99949.25;4184141;28;20247;-54
2024/01/30 08:59:00;;;;;;;3.67;3.40;;;;;;;1.87;100.00;99945.53;4174499;28;20206;-54
2024/01/30 09:01:03;;;;;;;4.32;3.95;;;;;;;1.89;100.00;99943.50;4169666;28;20747;-54
2024/01/30 09:03:05;;;;;;;5.65;5.22;;;;;;;2.02;100.00;99949.31;4175724;28;20297;-51
2024/01/30 09:05:08;;;;;;;3.53;3.33;;;;;;;2.15;100.00;99949.72;4174851;28;21071;-53
2024/01/30 09:07:10;;;;;;;3.90;3.60;;;;;;;2.28;100.00;99941.19;4185723;28;20203;-54
2024/01/30 09:09:12;;;;;;;3.55;3.35;;;;;;;2.34;100.00;99949.47;4169664;28;20210;-53
2024/01/30 09:11:18;;;;;;;5.10;4.35;;;;;;;2.48;100.00;99946.13;4168044;28;20216;-55
2024/01/30 09:13:20;;;;;;;4.35;3.55;;;;;;;2.70;100.00;99945.56;4171638;28;20232;-53
2024/01/30 09:15:22;;;;;;;5.65;4.40;;;;;;;2.80;100.00;99935.41;4172573;28;20261;-56
2024/01/30 09:17:27;;;;;;;9.52;4.60;;;;;;;2.83;100.00;99947.75;4170442;28;20211;-52
2024/01/30 09:19:30;;;;;;;5.00;4.70;;;;;;;2.93;100.00;99941.19;4171355;28;20290;-53
2024/01/30 09:21:32;;;;;;;5.82;5.18;;;;;;;3.02;100.00;99942.06;4169788;28;20273;-53
2024/01/30 09:23:37;;;;;;;7.75;6.80;;;;;;;3.07;100.00;99948.63;4173809;28;20307;-53
2024/01/30 09:25:39;;;;;;;9.77;8.88;;;;;;;3.14;100.00;99949.66;4173894;28;20262;-53
2024/01/30 09:27:40;;;;;;;13.07;11.63;;;;;;;3.17;100.00;99949.34;4154647;28;20244;-51
2024/01/30 09:29:42;;;;;;;15.05;11.95;;;;;;;3.29;100.00;99944.44;4173684;28;20735;-51
2024/01/30 09:31:45;;;;;;;12.75;11.30;;;;;;;3.47;100.00;99955.94;4171041;28;20212;-51
2024/01/30 09:33:49;;;;;;;10.90;9.77;;;;;;;3.69;100.00;99966.91;4169267;28;20228;-51
2024/01/30 09:35:51;;;;;;;18.75;9.15;;;;;;;4.03;100.00;99964.81;4170781;28;20228;-51